createdAt,value
2022-11-29T00:01:00.307Z,6.56
2022-11-29T00:03:28.884Z,6.51
2022-11-29T00:05:56.470Z,6.55
2022-11-29T00:08:25.440Z,6.43
2022-11-29T00:10:53.372Z,6.67
2022-11-29T00:13:19.871Z,6.41
2022-11-29T00:15:47.360Z,6.54
2022-11-29T00:18:14.823Z,6.54
2022-11-29T00:20:42.287Z,6.48
2022-11-29T00:23:09.765Z,6.45
2022-11-29T00:25:40.251Z,6.47
2022-11-29T00:28:07.858Z,6.48
2022-11-29T00:30:35.372Z,6.47
2022-11-29T00:33:03.677Z,6.48
2022-11-29T00:35:31.380Z,6.49
2022-11-29T00:37:58.893Z,6.41
2022-11-29T00:40:26.391Z,6.56
2022-11-29T00:42:55.244Z,6.51
2022-11-29T00:45:22.719Z,6.50
2022-11-29T00:47:50.173Z,6.51
2022-11-29T00:50:17.678Z,6.52
2022-11-29T00:52:45.161Z,6.63
2022-11-29T00:55:12.640Z,6.62
2022-11-29T00:57:40.130Z,6.72
2022-11-29T01:00:10.330Z,6.75
2022-11-29T01:02:37.855Z,6.63
2022-11-29T01:05:05.897Z,6.71
2022-11-29T01:07:33.300Z,6.60
2022-11-29T01:10:00.823Z,6.60
2022-11-29T01:12:28.331Z,6.68
2022-11-29T01:14:55.828Z,6.61
2022-11-29T01:17:24.685Z,6.70
2022-11-29T01:19:52.150Z,6.70
2022-11-29T01:22:19.699Z,6.74
2022-11-29T01:24:47.271Z,6.69
2022-11-29T01:27:14.776Z,6.71
2022-11-29T01:29:42.411Z,6.69
2022-11-29T01:32:10.010Z,6.58
2022-11-29T01:34:38.876Z,6.66
2022-11-29T01:37:06.385Z,6.73
2022-11-29T01:39:33.903Z,6.76
2022-11-29T01:42:02.235Z,6.84
2022-11-29T01:45:02.296Z,6.91
2022-11-29T01:47:30.640Z,6.72
2022-11-29T01:50:00.292Z,6.71
2022-11-29T01:52:31.482Z,6.71
2022-11-29T01:55:02.789Z,6.76
2022-11-29T01:57:32.272Z,6.79
2022-11-29T02:00:07.340Z,6.77
2022-11-29T02:02:37.836Z,6.85
2022-11-29T02:05:08.255Z,6.90
2022-11-29T02:07:36.730Z,6.77
2022-11-29T02:10:06.109Z,6.82
2022-11-29T02:12:45.388Z,6.79
2022-11-29T02:15:28.054Z,6.71
2022-11-29T02:18:07.520Z,6.68
2022-11-29T02:21:23.930Z,6.62
2022-11-29T02:24:21.792Z,6.65
2022-11-29T02:27:17.595Z,6.54
2022-11-29T02:30:07.348Z,6.50
2022-11-29T02:33:19.796Z,6.43
2022-11-29T02:36:19.908Z,6.38
2022-11-29T02:39:02.552Z,6.43
2022-11-29T02:41:43.687Z,6.51
2022-11-29T02:44:47.527Z,6.67
2022-11-29T02:47:26.737Z,6.41
2022-11-29T02:50:12.985Z,6.42
2022-11-29T02:52:49.918Z,6.40
2022-11-29T02:55:23.680Z,6.38
2022-11-29T02:57:59.384Z,6.34
2022-11-29T03:00:27.291Z,6.32
2022-11-29T03:03:03.127Z,6.46
2022-11-29T03:05:41.835Z,6.64
2022-11-29T03:08:17.522Z,6.48
2022-11-29T03:10:56.309Z,6.64
2022-11-29T03:13:33.902Z,6.73
2022-11-29T03:16:11.437Z,6.84
2022-11-29T03:18:51.916Z,6.68
2022-11-29T03:21:34.159Z,6.68
2022-11-29T03:24:07.187Z,6.63
2022-11-29T03:26:39.058Z,6.72
2022-11-29T03:29:10.551Z,6.60
2022-11-29T03:31:43.392Z,6.66
2022-11-29T03:34:20.363Z,6.55
2022-11-29T03:36:59.152Z,6.56
2022-11-29T03:39:39.928Z,6.44
2022-11-29T03:42:12.546Z,6.53
2022-11-29T03:44:46.565Z,6.53
2022-11-29T03:47:18.111Z,6.55
2022-11-29T03:49:52.661Z,6.72
2022-11-29T03:52:27.785Z,6.57
2022-11-29T03:55:08.014Z,6.46
2022-11-29T03:57:46.066Z,6.54
2022-11-29T04:00:14.816Z,6.50
2022-11-29T04:03:08.464Z,6.43
2022-11-29T04:05:48.287Z,6.44
2022-11-29T04:08:44.717Z,6.53
2022-11-29T04:11:54.568Z,6.30
2022-11-29T04:14:34.729Z,6.22
2022-11-29T04:17:23.195Z,6.36
2022-11-29T04:20:39.155Z,6.27
2022-11-29T04:23:33.545Z,6.23
2022-11-29T04:26:33.547Z,6.21
2022-11-29T04:29:16.588Z,6.21
2022-11-29T04:32:04.199Z,6.15
2022-11-29T04:34:53.550Z,6.08
2022-11-29T04:37:50.263Z,6.20
2022-11-29T04:40:38.908Z,6.09
2022-11-29T04:43:25.428Z,6.16
2022-11-29T04:46:25.328Z,6.21
2022-11-29T04:49:10.421Z,6.12
2022-11-29T04:51:57.320Z,5.98
2022-11-29T04:54:33.678Z,6.26
2022-11-29T04:57:08.446Z,6.19
2022-11-29T04:59:44.917Z,6.07
2022-11-29T05:02:23.815Z,5.96
2022-11-29T05:04:57.076Z,5.93
2022-11-29T05:07:34.149Z,6.06
2022-11-29T05:10:17.164Z,6.02
2022-11-29T05:12:54.370Z,6.02
2022-11-29T05:15:45.081Z,5.97
2022-11-29T05:18:21.172Z,6.01
2022-11-29T05:21:00.277Z,6.02
2022-11-29T05:23:40.769Z,6.02
2022-11-29T05:26:15.784Z,6.03
2022-11-29T05:28:54.955Z,6.16
2022-11-29T05:31:48.566Z,6.10
2022-11-29T05:34:35.257Z,6.05
2022-11-29T05:37:13.787Z,5.94
2022-11-29T05:39:56.896Z,6.11
2022-11-29T05:42:51.720Z,5.97
2022-11-29T05:45:26.631Z,6.01
2022-11-29T05:48:01.433Z,6.07
2022-11-29T05:50:36.046Z,6.02
2022-11-29T05:53:16.454Z,5.98
2022-11-29T05:55:54.798Z,5.96
2022-11-29T05:58:30.861Z,5.99
2022-11-29T06:01:06.628Z,5.97
2022-11-29T06:03:39.918Z,5.93
2022-11-29T06:06:16.499Z,5.95
2022-11-29T06:08:49.598Z,6.03
2022-11-29T06:11:22.749Z,6.06
2022-11-29T06:14:03.123Z,5.97
2022-11-29T06:16:53.159Z,5.96
2022-11-29T06:19:57.353Z,6.00
2022-11-29T06:22:41.143Z,6.00
2022-11-29T06:25:24.594Z,6.02
2022-11-29T06:28:09.136Z,5.98
2022-11-29T06:30:52.991Z,6.04
2022-11-29T06:33:25.928Z,6.00
2022-11-29T06:36:14.686Z,6.14
2022-11-29T06:38:42.522Z,6.14
2022-11-29T06:41:17.226Z,6.15
2022-11-29T06:43:45.303Z,6.11
2022-11-29T06:46:16.523Z,6.17
2022-11-29T06:48:53.732Z,6.09
2022-11-29T06:51:30.318Z,6.02
2022-11-29T06:54:05.381Z,6.05
2022-11-29T06:56:42.462Z,6.09
2022-11-29T06:59:24.899Z,6.10
2022-11-29T07:01:58.203Z,5.96
2022-11-29T07:04:53.217Z,6.00
2022-11-29T07:07:23.514Z,5.84
2022-11-29T07:09:55.038Z,5.89
2022-11-29T07:12:23.156Z,5.88
2022-11-29T07:14:50.816Z,5.94
2022-11-29T07:17:27.608Z,5.91
2022-11-29T07:20:04.586Z,5.92
2022-11-29T07:22:46.218Z,5.97
2022-11-29T07:25:25.522Z,5.82
2022-11-29T07:28:00.238Z,5.90
2022-11-29T07:30:34.370Z,5.98
2022-11-29T07:33:09.759Z,5.91
2022-11-29T07:35:48.394Z,5.89
2022-11-29T07:38:25.866Z,5.88
2022-11-29T07:40:58.841Z,5.95
2022-11-29T07:43:38.288Z,5.95
2022-11-29T07:46:05.823Z,5.94
2022-11-29T07:48:33.434Z,6.00
2022-11-29T07:51:02.590Z,6.00
2022-11-29T07:53:30.450Z,5.97
2022-11-29T07:55:59.099Z,6.03
2022-11-29T07:58:26.630Z,6.04
2022-11-29T08:00:54.179Z,6.03
2022-11-29T08:03:21.707Z,6.09
2022-11-29T08:05:49.397Z,6.15
2022-11-29T08:08:18.219Z,6.12
2022-11-29T08:10:45.942Z,6.04
2022-11-29T08:13:13.764Z,6.03
2022-11-29T08:15:45.248Z,6.15
2022-11-29T08:18:12.799Z,6.18
2022-11-29T08:20:41.658Z,6.22
2022-11-29T08:23:12.743Z,6.20
2022-11-29T08:25:41.654Z,6.23
2022-11-29T08:28:09.878Z,6.40
2022-11-29T08:30:37.475Z,6.31
2022-11-29T08:33:05.679Z,6.46
2022-11-29T08:35:35.460Z,6.34
2022-11-29T08:38:03.775Z,6.42
2022-11-29T08:40:31.298Z,6.55
2022-11-29T08:43:00.171Z,6.45
2022-11-29T08:45:27.722Z,6.53
2022-11-29T08:47:55.254Z,6.62
2022-11-29T08:50:22.811Z,6.50
2022-11-29T08:53:08.281Z,6.48
2022-11-29T08:55:39.570Z,6.37
2022-11-29T08:58:10.138Z,6.50
2022-11-29T09:00:38.302Z,6.57
2022-11-29T09:03:22.016Z,6.59
2022-11-29T09:05:49.839Z,6.46
2022-11-29T09:08:17.396Z,6.58
2022-11-29T09:10:45.246Z,6.68
2022-11-29T09:13:14.214Z,6.69
2022-11-29T09:15:43.428Z,6.71
2022-11-29T09:18:11.514Z,6.78
2022-11-29T09:20:38.864Z,6.75
2022-11-29T09:23:06.413Z,6.75
2022-11-29T09:25:33.943Z,6.84
2022-11-29T09:28:03.013Z,6.98
2022-11-29T09:30:31.953Z,6.94
2022-11-29T09:33:02.557Z,7.04
2022-11-29T09:35:30.421Z,6.95
2022-11-29T09:37:57.901Z,6.83
2022-11-29T09:40:32.446Z,6.78
2022-11-29T09:43:07.286Z,6.78
2022-11-29T09:45:41.965Z,6.93
2022-11-29T09:48:32.255Z,6.99
2022-11-29T09:51:10.714Z,6.91
2022-11-29T09:53:54.384Z,6.96
2022-11-29T09:56:28.870Z,6.98
2022-11-29T09:59:01.097Z,6.88
2022-11-29T10:01:34.254Z,6.92
2022-11-29T10:04:04.640Z,6.86
2022-11-29T10:06:38.567Z,6.79
2022-11-29T10:09:16.501Z,6.80
2022-11-29T10:11:52.131Z,6.82
2022-11-29T10:14:25.500Z,6.92
2022-11-29T10:17:04.098Z,7.01
2022-11-29T10:19:35.993Z,6.98
2022-11-29T10:22:07.213Z,7.13
2022-11-29T10:24:35.806Z,7.08
2022-11-29T10:27:10.842Z,7.13
2022-11-29T10:29:39.509Z,7.15
2022-11-29T10:32:14.766Z,7.08
2022-11-29T10:34:43.775Z,7.14
2022-11-29T10:37:15.382Z,7.08
2022-11-29T10:39:46.207Z,7.11
2022-11-29T10:42:31.650Z,7.18
2022-11-29T10:45:00.288Z,7.23
2022-11-29T10:47:29.293Z,7.13
2022-11-29T10:49:56.843Z,7.10
2022-11-29T10:52:25.131Z,7.01
2022-11-29T10:54:56.914Z,6.99
2022-11-29T10:57:24.505Z,6.97
2022-11-29T11:00:00.960Z,7.04
2022-11-29T11:02:30.247Z,6.99
2022-11-29T11:04:58.050Z,6.97
2022-11-29T11:07:28.950Z,6.90
2022-11-29T11:09:58.479Z,6.84
2022-11-29T11:12:28.470Z,6.93
2022-11-29T11:15:15.375Z,6.95
2022-11-29T11:17:56.583Z,6.92
2022-11-29T11:20:24.786Z,6.99
2022-11-29T11:22:58.859Z,7.02
2022-11-29T11:25:30.252Z,7.11
2022-11-29T11:27:58.655Z,7.10
2022-11-29T11:30:29.768Z,7.22
2022-11-29T11:33:20.182Z,7.16
2022-11-29T11:36:02.104Z,7.27
2022-11-29T11:38:30.363Z,7.10
2022-11-29T11:41:05.206Z,7.29
2022-11-29T11:43:33.999Z,7.15
2022-11-29T11:46:01.605Z,7.20
2022-11-29T11:48:30.623Z,7.18
2022-11-29T11:51:01.568Z,7.29
2022-11-29T11:53:33.436Z,7.32
2022-11-29T11:56:02.709Z,7.27
2022-11-29T11:58:32.216Z,7.32
2022-11-29T12:01:14.436Z,7.43
2022-11-29T12:03:51.581Z,7.29
2022-11-29T12:06:32.710Z,7.30
2022-11-29T12:09:06.039Z,7.41
2022-11-29T12:11:42.026Z,7.24
2022-11-29T12:14:16.811Z,7.26
2022-11-29T12:16:48.051Z,7.41
2022-11-29T12:19:24.393Z,7.31
2022-11-29T12:22:00.606Z,7.39
2022-11-29T12:24:31.677Z,7.48
2022-11-29T12:27:04.183Z,7.36
2022-11-29T12:29:35.248Z,7.21
2022-11-29T12:32:15.622Z,7.35
2022-11-29T12:35:11.845Z,7.39
2022-11-29T12:37:50.332Z,7.15
2022-11-29T12:40:28.829Z,7.22
2022-11-29T12:43:03.621Z,7.18
2022-11-29T12:45:42.697Z,7.17
2022-11-29T12:48:25.473Z,7.09
2022-11-29T12:51:02.632Z,7.14
2022-11-29T12:53:45.851Z,7.18
2022-11-29T12:56:20.940Z,7.04
2022-11-29T12:59:00.007Z,7.07
2022-11-29T13:01:36.984Z,7.25
2022-11-29T13:04:16.673Z,7.22
2022-11-29T13:06:53.991Z,7.24
2022-11-29T13:09:55.257Z,7.11
2022-11-29T13:12:32.785Z,7.04
2022-11-29T13:15:04.076Z,7.22
2022-11-29T13:17:39.417Z,7.08
2022-11-29T13:20:24.896Z,7.08
2022-11-29T13:22:59.952Z,7.07
2022-11-29T13:25:31.335Z,7.01
2022-11-29T13:28:02.714Z,7.01
2022-11-29T13:30:30.459Z,7.16
2022-11-29T13:33:03.587Z,7.17
2022-11-29T13:35:37.183Z,7.09
2022-11-29T13:38:14.296Z,7.11
2022-11-29T13:40:53.062Z,7.04
2022-11-29T13:43:30.309Z,7.00
2022-11-29T13:46:06.665Z,7.01
2022-11-29T13:48:37.109Z,6.95
2022-11-29T13:51:31.231Z,6.85
2022-11-29T13:54:03.254Z,6.87
2022-11-29T13:56:36.773Z,6.97
2022-11-29T13:59:09.088Z,6.96
2022-11-29T14:01:48.225Z,6.89
2022-11-29T14:04:25.905Z,6.93
2022-11-29T14:07:04.786Z,6.80
2022-11-29T14:09:44.206Z,6.82
2022-11-29T14:12:36.615Z,6.84
2022-11-29T14:15:15.525Z,6.94
2022-11-29T14:17:57.668Z,6.78
2022-11-29T14:20:58.742Z,6.84
2022-11-29T14:23:35.447Z,6.90
2022-11-29T14:26:28.615Z,6.75
2022-11-29T14:28:56.646Z,6.76
2022-11-29T14:31:53.753Z,6.68
2022-11-29T14:34:37.755Z,6.76
2022-11-29T14:37:21.081Z,6.76
2022-11-29T14:39:52.201Z,6.83
2022-11-29T14:42:22.734Z,6.85
2022-11-29T14:44:52.807Z,6.86
2022-11-29T14:47:31.675Z,6.68
2022-11-29T14:50:03.614Z,6.63
2022-11-29T14:52:33.956Z,6.77
2022-11-29T14:55:10.107Z,6.73
2022-11-29T14:58:19.801Z,6.67
2022-11-29T15:01:10.950Z,6.75
2022-11-29T15:03:45.065Z,6.66
2022-11-29T15:06:17.787Z,6.67
2022-11-29T15:08:54.996Z,6.61
2022-11-29T15:11:32.469Z,6.60
2022-11-29T15:14:05.901Z,6.58
2022-11-29T15:16:59.262Z,6.66
2022-11-29T15:20:12.200Z,6.62
2022-11-29T15:22:48.944Z,6.63
2022-11-29T15:25:19.202Z,6.57
2022-11-29T15:27:54.247Z,6.60
2022-11-29T15:30:31.258Z,6.55
2022-11-29T15:33:00.669Z,6.60
2022-11-29T15:35:28.707Z,6.68
2022-11-29T15:37:56.342Z,6.51
2022-11-29T15:40:31.253Z,6.64
2022-11-29T15:43:05.018Z,6.59
2022-11-29T15:45:35.700Z,6.61
2022-11-29T15:48:17.043Z,6.52
2022-11-29T15:50:50.155Z,6.59
2022-11-29T15:53:22.440Z,6.74
2022-11-29T15:55:53.278Z,6.73
2022-11-29T15:58:21.597Z,6.71
2022-11-29T16:00:52.424Z,6.67
2022-11-29T16:03:25.160Z,6.74
2022-11-29T16:06:01.033Z,6.70
2022-11-29T16:08:33.467Z,6.63
2022-11-29T16:11:01.630Z,6.72
2022-11-29T16:13:40.086Z,6.81
2022-11-29T16:16:17.149Z,6.72
2022-11-29T16:18:47.189Z,6.75
2022-11-29T16:21:33.212Z,6.76
2022-11-29T16:24:12.340Z,6.80
2022-11-29T16:26:43.972Z,6.64
2022-11-29T16:29:24.354Z,6.63
2022-11-29T16:31:53.851Z,6.72
2022-11-29T16:34:27.434Z,6.62
2022-11-29T16:37:04.520Z,6.69
2022-11-29T16:39:32.444Z,6.61
2022-11-29T16:42:07.754Z,6.54
2022-11-29T16:44:59.133Z,6.62
2022-11-29T16:47:30.184Z,6.64
2022-11-29T16:50:18.511Z,6.74
2022-11-29T16:52:46.502Z,6.74
2022-11-29T16:55:15.335Z,6.67
2022-11-29T16:57:43.155Z,6.74
2022-11-29T17:00:13.272Z,6.62
2022-11-29T17:02:42.184Z,6.65
2022-11-29T17:05:09.950Z,6.74
2022-11-29T17:07:39.600Z,6.65
2022-11-29T17:10:11.748Z,6.67
2022-11-29T17:12:42.234Z,6.65
2022-11-29T17:15:14.219Z,6.67
2022-11-29T17:17:44.157Z,6.62
2022-11-29T17:20:13.146Z,6.56
2022-11-29T17:22:40.676Z,6.64
2022-11-29T17:25:08.993Z,6.54
2022-11-29T17:27:36.611Z,6.61
2022-11-29T17:30:04.489Z,6.83
2022-11-29T17:32:34.829Z,6.97
2022-11-29T17:35:03.699Z,7.13
2022-11-29T17:37:31.656Z,7.21
2022-11-29T17:39:59.151Z,7.36
2022-11-29T17:42:27.709Z,7.25
2022-11-29T17:44:55.181Z,7.05
2022-11-29T17:47:22.650Z,7.28
2022-11-29T17:49:50.098Z,7.24
2022-11-29T17:52:18.904Z,7.32
2022-11-29T17:54:46.395Z,7.38
2022-11-29T17:57:13.853Z,7.21
2022-11-29T17:59:41.300Z,7.21
2022-11-29T18:02:10.642Z,7.18
2022-11-29T18:04:41.853Z,7.20
2022-11-29T18:07:09.311Z,7.17
2022-11-29T18:09:38.094Z,7.27
2022-11-29T18:12:05.762Z,7.32
2022-11-29T18:14:34.087Z,7.35
2022-11-29T18:17:01.589Z,7.22
2022-11-29T18:19:32.142Z,7.22
2022-11-29T18:21:59.662Z,7.22
2022-11-29T18:24:27.133Z,7.08
2022-11-29T18:26:55.910Z,7.13
2022-11-29T18:29:24.029Z,7.07
2022-11-29T18:31:51.351Z,7.17
2022-11-29T18:34:18.843Z,7.24
2022-11-29T18:36:48.124Z,7.24
2022-11-29T18:39:17.598Z,7.07
2022-11-29T18:41:47.493Z,7.24
2022-11-29T18:44:18.014Z,7.18
2022-11-29T18:46:46.089Z,7.17
2022-11-29T18:49:14.246Z,7.12
2022-11-29T18:51:44.462Z,7.21
2022-11-29T18:54:12.688Z,7.21
2022-11-29T18:56:40.424Z,7.27
2022-11-29T18:59:10.763Z,7.24
2022-11-29T19:01:42.562Z,7.14
2022-11-29T19:04:13.136Z,7.13
2022-11-29T19:06:41.463Z,7.25
2022-11-29T19:09:12.902Z,7.16
2022-11-29T19:11:40.812Z,7.16
2022-11-29T19:14:11.589Z,7.22
2022-11-29T19:16:42.455Z,7.08
2022-11-29T19:19:10.585Z,7.07
2022-11-29T19:21:39.597Z,7.05
2022-11-29T19:24:13.908Z,7.21
2022-11-29T19:26:44.385Z,6.95
2022-11-29T19:29:12.502Z,6.97
2022-11-29T19:31:42.295Z,6.93
2022-11-29T19:34:09.775Z,6.82
2022-11-29T19:36:42.433Z,6.97
2022-11-29T19:39:13.185Z,6.95
2022-11-29T19:41:42.078Z,6.89
2022-11-29T19:44:09.663Z,6.91
2022-11-29T19:46:38.934Z,6.80
2022-11-29T19:49:09.010Z,6.85
2022-11-29T19:51:36.619Z,6.82
2022-11-29T19:54:06.626Z,6.84
2022-11-29T19:56:34.245Z,6.84
2022-11-29T19:59:01.697Z,6.83
2022-11-29T20:01:39.238Z,6.71
2022-11-29T20:04:09.657Z,6.75
2022-11-29T20:06:37.140Z,6.88
2022-11-29T20:09:06.339Z,6.82
2022-11-29T20:11:33.819Z,6.90
2022-11-29T20:14:03.117Z,6.82
2022-11-29T20:16:32.077Z,6.70
2022-11-29T20:19:01.526Z,6.73
2022-11-29T20:21:32.577Z,6.60
2022-11-29T20:24:02.145Z,6.59
2022-11-29T20:26:31.416Z,6.50
2022-11-29T20:28:59.770Z,6.49
2022-11-29T20:31:27.412Z,6.55
2022-11-29T20:33:57.209Z,6.50
2022-11-29T20:36:38.604Z,6.56
2022-11-29T20:39:18.238Z,6.47
2022-11-29T20:41:56.245Z,6.63
2022-11-29T20:44:28.078Z,6.37
2022-11-29T20:46:55.914Z,6.37
2022-11-29T20:49:23.826Z,6.36
2022-11-29T20:51:59.003Z,6.25
2022-11-29T20:54:26.564Z,6.16
2022-11-29T20:56:54.041Z,6.18
2022-11-29T20:59:22.539Z,6.06
2022-11-29T21:01:50.124Z,5.92
2022-11-29T21:04:22.944Z,6.18
2022-11-29T21:06:50.952Z,5.99
2022-11-29T21:09:19.758Z,5.98
2022-11-29T21:11:47.721Z,5.99
2022-11-29T21:14:16.774Z,5.92
2022-11-29T21:16:44.670Z,5.91
2022-11-29T21:19:19.844Z,5.95
2022-11-29T21:21:59.555Z,5.96
2022-11-29T21:24:39.883Z,5.98
2022-11-29T21:27:14.383Z,5.85
2022-11-29T21:29:42.383Z,5.92
2022-11-29T21:32:21.272Z,5.91
2022-11-29T21:34:48.897Z,5.83
2022-11-29T21:37:19.173Z,5.81
2022-11-29T21:39:49.192Z,5.98
2022-11-29T21:42:16.788Z,5.77
2022-11-29T21:44:44.739Z,5.84
2022-11-29T21:47:12.909Z,5.87
2022-11-29T21:49:40.448Z,5.83
2022-11-29T21:52:07.995Z,5.85
2022-11-29T21:54:35.467Z,5.92
2022-11-29T21:57:04.484Z,5.83
2022-11-29T21:59:32.007Z,5.80
2022-11-29T22:01:59.488Z,5.91
2022-11-29T22:04:27.189Z,5.90
2022-11-29T22:06:54.885Z,5.76
2022-11-29T22:09:22.380Z,5.72
2022-11-29T22:11:49.847Z,5.82
2022-11-29T22:14:19.051Z,5.80
2022-11-29T22:16:48.622Z,5.80
2022-11-29T22:19:18.057Z,5.78
2022-11-29T22:21:47.309Z,5.77
2022-11-29T22:24:16.538Z,5.73
2022-11-29T22:26:44.404Z,5.81
2022-11-29T22:29:13.920Z,5.74
2022-11-29T22:31:43.136Z,5.75
2022-11-29T22:34:11.119Z,5.83
2022-11-29T22:36:39.210Z,5.71
2022-11-29T22:39:07.061Z,5.77
2022-11-29T22:41:35.511Z,5.76
2022-11-29T22:44:03.327Z,5.81
2022-11-29T22:46:30.887Z,5.67
2022-11-29T22:49:00.539Z,5.56
2022-11-29T22:51:30.356Z,5.81
2022-11-29T22:53:59.513Z,5.86
2022-11-29T22:56:28.823Z,5.80
2022-11-29T22:58:56.793Z,5.74
2022-11-29T23:01:26.161Z,5.81
2022-11-29T23:03:55.596Z,5.73
2022-11-29T23:06:26.823Z,5.72
2022-11-29T23:08:56.071Z,5.76
2022-11-29T23:11:25.532Z,5.69
2022-11-29T23:13:53.119Z,5.73
2022-11-29T23:16:22.492Z,5.78
2022-11-29T23:18:50.129Z,5.73
2022-11-29T23:21:20.271Z,5.81
2022-11-29T23:23:53.045Z,5.78
2022-11-29T23:26:26.346Z,5.76
2022-11-29T23:28:54.996Z,5.70
2022-11-29T23:31:23.871Z,5.70
2022-11-29T23:33:51.547Z,5.64
2022-11-29T23:36:19.101Z,5.68
2022-11-29T23:38:46.830Z,5.74
2022-11-29T23:41:15.938Z,5.65
2022-11-29T23:43:43.453Z,5.60
2022-11-29T23:46:14.934Z,5.71
2022-11-29T23:48:43.122Z,5.77
2022-11-29T23:51:11.440Z,5.84
2022-11-29T23:53:39.935Z,5.82
2022-11-29T23:56:10.987Z,5.66
2022-11-29T23:58:40.044Z,5.63
